Latest Weather Observations for Norah Head
Issued at 8:11 pm EST Wednesday 6 May 2026 (issued every 10 minutes, with the page automatically refreshed every 10 minutes)
| Station Details | ID: 061366 | Name: NORAH HEAD AWS | Lat: -33.28 | Lon: 151.58 | Height: 18.8 m |
| Date/Time EST |
Temp °C |
App Temp °C |
Dew Point °C |
Rel Hum % |
Delta-T °C |
Wind | Press QNH hPa |
Press MSL hPa |
Rain since 9am mm |
||||
|---|---|---|---|---|---|---|---|---|---|---|---|---|---|
| Dir | Spd km/h |
Gust km/h |
Spd kts |
Gust kts |
|||||||||
| 06/08:00pm | 19.0 | 18.4 | 15.7 | 81 | 2.0 | NNE | 13 | 17 | 7 | 9 | 1016.4 | 1016.3 | 0.0 |
| 06/07:30pm | 18.1 | 17.6 | 14.8 | 81 | 1.9 | ESE | 11 | 13 | 6 | 7 | 1016.4 | 1016.3 | 0.0 |
| 06/07:00pm | 18.2 | 18.5 | 14.5 | 79 | 2.1 | SSE | 6 | 7 | 3 | 4 | 1016.5 | 1016.4 | 0.0 |
| 06/06:30pm | 18.4 | 18.6 | 14.7 | 79 | 2.1 | S | 7 | 9 | 4 | 5 | 1016.5 | 1016.4 | 0.0 |
| 06/06:00pm | 18.7 | 19.0 | 15.0 | 79 | 2.2 | SSE | 7 | 9 | 4 | 5 | 1016.4 | 1016.3 | 0.0 |
| 06/05:30pm | 18.7 | 18.9 | 14.8 | 78 | 2.3 | SSE | 7 | 11 | 4 | 6 | 1016.3 | 1016.2 | 0.0 |
| 06/05:00pm | 19.1 | 19.3 | 14.8 | 76 | 2.5 | SSE | 7 | 11 | 4 | 6 | 1016.4 | 1016.3 | 0.0 |
| 06/04:30pm | 19.3 | 18.7 | 14.6 | 74 | 2.7 | SSE | 11 | 15 | 6 | 8 | 1016.3 | 1016.2 | 0.0 |
| 06/04:00pm | 20.0 | 19.4 | 14.6 | 71 | 3.1 | SSE | 11 | 15 | 6 | 8 | 1016.5 | 1016.4 | 0.0 |
| 06/03:30pm | 20.8 | 20.0 | 15.1 | 70 | 3.4 | S | 13 | 15 | 7 | 8 | 1016.6 | 1016.5 | 0.0 |
| 06/03:00pm | 21.0 | 20.0 | 15.5 | 71 | 3.3 | S | 15 | 19 | 8 | 10 | 1016.7 | 1016.6 | 0.0 |
| 06/02:30pm | 21.1 | 19.6 | 15.4 | 70 | 3.4 | SSE | 17 | 20 | 9 | 11 | 1017.0 | 1016.9 | 0.0 |
| 06/02:00pm | 21.0 | 19.9 | 15.3 | 70 | 3.4 | S | 15 | 19 | 8 | 10 | 1017.2 | 1017.1 | 0.0 |
| 06/01:30pm | 21.1 | 19.9 | 15.0 | 68 | 3.6 | S | 15 | 19 | 8 | 10 | 1017.8 | 1017.7 | 0.0 |
| 06/01:00pm | 21.1 | 20.3 | 15.2 | 69 | 3.5 | S | 13 | 17 | 7 | 9 | 1018.1 | 1018.0 | 0.0 |
| 06/12:30pm | 20.0 | 19.3 | 14.4 | 70 | 3.3 | S | 11 | 17 | 6 | 9 | 1018.6 | 1018.5 | 0.0 |
| 06/12:00pm | 20.4 | 19.4 | 14.5 | 69 | 3.4 | S | 13 | 17 | 7 | 9 | 1019.0 | 1018.9 | 0.0 |
| 06/11:30am | 20.1 | 19.6 | 13.8 | 67 | 3.6 | SSW | 9 | 13 | 5 | 7 | 1019.6 | 1019.5 | 0.0 |
| 06/11:00am | 20.6 | 20.5 | 14.0 | 66 | 3.8 | S | 7 | 11 | 4 | 6 | 1020.0 | 1019.9 | 0.0 |
| 06/10:30am | 20.2 | 19.3 | 12.7 | 62 | 4.2 | S | 9 | 13 | 5 | 7 | 1020.2 | 1020.1 | 0.0 |
| 06/10:00am | 18.5 | 17.7 | 11.8 | 65 | 3.7 | SW | 7 | 15 | 4 | 8 | 1020.3 | 1020.2 | 0.0 |
| 06/09:30am | 17.6 | 16.3 | 11.4 | 67 | 3.4 | WSW | 9 | 15 | 5 | 8 | 1020.3 | 1020.2 | 0.0 |
| 06/09:00am | 16.6 | 13.9 | 10.2 | 66 | 3.4 | WSW | 15 | 22 | 8 | 12 | 1020.3 | 1020.2 | 0.0 |
| 06/08:30am | 15.9 | 13.0 | 9.8 | 67 | 3.2 | W | 15 | 20 | 8 | 11 | 1020.3 | 1020.2 | 0.0 |
| 06/08:00am | 15.2 | 11.8 | 9.1 | 67 | 3.1 | W | 17 | 22 | 9 | 12 | 1020.3 | 1020.2 | 0.0 |
| 06/07:30am | 14.7 | 11.3 | 9.1 | 69 | 2.9 | W | 17 | 22 | 9 | 12 | 1020.2 | 1020.1 | 0.0 |
| 06/07:00am | 14.2 | 11.1 | 8.8 | 70 | 2.7 | W | 15 | 20 | 8 | 11 | 1020.1 | 1020.0 | 0.0 |
| 06/06:30am | 14.2 | 11.1 | 8.8 | 70 | 2.7 | W | 15 | 20 | 8 | 11 | 1020.0 | 1019.9 | 0.0 |
| 06/06:00am | 14.2 | 10.8 | 9.0 | 71 | 2.6 | W | 17 | 22 | 9 | 12 | 1019.8 | 1019.7 | 0.0 |
| 06/05:30am | 14.2 | 10.8 | 9.2 | 72 | 2.6 | W | 17 | 22 | 9 | 12 | 1019.7 | 1019.6 | 0.0 |
| 06/05:00am | 14.3 | 10.9 | 9.3 | 72 | 2.5 | W | 17 | 20 | 9 | 11 | 1019.6 | 1019.5 | 0.0 |
| 06/04:30am | 14.4 | 11.4 | 9.2 | 71 | 2.7 | W | 15 | 20 | 8 | 11 | 1019.6 | 1019.5 | 0.0 |
| 06/04:00am | 14.5 | 11.5 | 9.3 | 71 | 2.7 | W | 15 | 20 | 8 | 11 | 1019.6 | 1019.5 | 0.0 |
| 06/03:30am | 14.6 | 11.7 | 9.6 | 72 | 2.6 | W | 15 | 20 | 8 | 11 | 1019.7 | 1019.6 | 0.0 |
| 06/03:00am | 14.3 | 11.5 | 9.9 | 75 | 2.3 | W | 15 | 20 | 8 | 11 | 1019.9 | 1019.8 | 0.0 |
| 06/02:30am | 14.2 | 11.9 | 10.6 | 79 | 1.9 | W | 13 | 17 | 7 | 9 | 1020.1 | 1020.0 | 0.0 |
| 06/02:00am | 14.4 | 11.8 | 10.8 | 79 | 1.9 | WSW | 15 | 19 | 8 | 10 | 1020.2 | 1020.1 | 0.0 |
| 06/01:30am | 15.0 | 12.2 | 11.2 | 78 | 2.0 | W | 17 | 24 | 9 | 13 | 1020.4 | 1020.3 | 0.0 |
| 06/01:00am | 15.4 | 12.6 | 11.4 | 77 | 2.1 | W | 17 | 22 | 9 | 12 | 1020.5 | 1020.4 | 0.0 |
| 06/12:30am | 16.1 | 14.2 | 11.7 | 75 | 2.4 | WSW | 13 | 17 | 7 | 9 | 1020.6 | 1020.5 | 0.0 |
| 06/12:00am | 16.0 | 14.5 | 11.8 | 76 | 2.3 | WSW | 11 | 15 | 6 | 8 | 1020.7 | 1020.6 | 0.0 |
| Date/Time EST |
Temp °C |
App Temp °C |
Dew Point °C |
Rel Hum % |
Delta-T °C |
Wind | Press QNH hPa |
Press MSL hPa |
Rain since 9am mm |
||||
|---|---|---|---|---|---|---|---|---|---|---|---|---|---|
| Dir | Spd km/h |
Gust km/h |
Spd kts |
Gust kts |
|||||||||
| 05/11:30pm | 16.2 | 14.7 | 11.8 | 75 | 2.4 | WSW | 11 | 13 | 6 | 7 | 1020.7 | 1020.6 | 0.0 |
| 05/11:00pm | 16.5 | 15.8 | 11.9 | 74 | 2.5 | SW | 7 | 11 | 4 | 6 | 1020.7 | 1020.6 | 0.0 |
| 05/10:30pm | 16.7 | 15.8 | 11.2 | 70 | 3.0 | SW | 7 | 13 | 4 | 7 | 1020.8 | 1020.7 | 0.0 |
| 05/10:00pm | 16.8 | 15.9 | 11.5 | 71 | 2.9 | SW | 7 | 11 | 4 | 6 | 1021.0 | 1020.9 | 0.0 |
| 05/09:30pm | 17.2 | 16.5 | 11.9 | 71 | 2.9 | WSW | 7 | 9 | 4 | 5 | 1020.8 | 1020.7 | 0.0 |
| 05/09:00pm | 17.7 | 17.0 | 11.5 | 67 | 3.4 | SW | 6 | 9 | 3 | 5 | 1020.5 | 1020.4 | 0.0 |
| 05/08:30pm | 18.1 | 16.8 | 11.4 | 65 | 3.7 | SSE | 9 | 15 | 5 | 8 | 1020.5 | 1020.4 | 0.0 |
| 05/08:00pm | 18.8 | 17.2 | 11.6 | 63 | 3.9 | S | 11 | 15 | 6 | 8 | 1020.3 | 1020.2 | 0.0 |
| 05/07:30pm | 18.5 | 16.4 | 11.3 | 63 | 3.9 | SSE | 13 | 19 | 7 | 10 | 1020.1 | 1020.0 | 0.0 |
| 05/07:00pm | 18.6 | 16.6 | 11.4 | 63 | 3.9 | SSE | 13 | 17 | 7 | 9 | 1019.6 | 1019.5 | 0.0 |
| 05/06:30pm | 18.5 | 16.2 | 11.6 | 64 | 3.8 | SSE | 15 | 20 | 8 | 11 | 1019.0 | 1018.9 | 0.0 |
| 05/06:00pm | 18.7 | 16.3 | 11.5 | 63 | 3.9 | SSE | 15 | 19 | 8 | 10 | 1018.8 | 1018.7 | 0.0 |
| 05/05:30pm | 18.7 | 16.2 | 11.0 | 61 | 4.2 | SSE | 15 | 19 | 8 | 10 | 1018.4 | 1018.3 | 0.0 |
| 05/05:00pm | 18.9 | 16.0 | 11.0 | 60 | 4.3 | SSE | 17 | 20 | 9 | 11 | 1017.8 | 1017.7 | 0.0 |
| 05/04:30pm | 19.1 | 17.1 | 11.4 | 61 | 4.2 | SSE | 13 | 17 | 7 | 9 | 1017.7 | 1017.6 | 0.0 |
| 05/04:00pm | 20.5 | 18.7 | 10.9 | 54 | 5.2 | SSE | 11 | 15 | 6 | 8 | 1017.5 | 1017.4 | 0.0 |
| 05/03:30pm | 21.1 | 19.1 | 11.4 | 54 | 5.4 | SSE | 13 | 17 | 7 | 9 | 1017.4 | 1017.3 | 0.0 |
| 05/03:00pm | 21.9 | 20.6 | 11.3 | 51 | 5.9 | SSE | 9 | 13 | 5 | 7 | 1017.3 | 1017.2 | 0.0 |
| 05/02:30pm | 22.8 | 20.8 | 11.5 | 49 | 6.3 | SSE | 13 | 17 | 7 | 9 | 1017.3 | 1017.2 | 0.0 |
| 05/02:00pm | 22.3 | 21.4 | 11.4 | 50 | 6.1 | S | 7 | 11 | 4 | 6 | 1017.1 | 1017.0 | 0.0 |
| 05/01:30pm | 21.9 | 20.8 | 9.8 | 46 | 6.5 | SSW | 6 | 15 | 3 | 8 | 1017.1 | 1017.0 | 0.0 |
| 05/01:00pm | 21.5 | 20.5 | 8.7 | 44 | 6.8 | S | 4 | 9 | 2 | 5 | 1017.5 | 1017.4 | 0.0 |
| 05/12:30pm | 21.0 | 19.5 | 9.3 | 47 | 6.2 | WSW | 7 | 13 | 4 | 7 | 1017.7 | 1017.6 | 0.0 |
| 05/12:00pm | 20.8 | 18.4 | 8.8 | 46 | 6.3 | WSW | 11 | 19 | 6 | 10 | 1018.0 | 1017.9 | 0.0 |
| 05/11:30am | 20.8 | 19.4 | 9.7 | 49 | 6.0 | WSW | 7 | 15 | 4 | 8 | 1018.5 | 1018.4 | 0.0 |
| 05/11:00am | 20.7 | 18.9 | 9.6 | 49 | 5.9 | WSW | 9 | 17 | 5 | 9 | 1018.7 | 1018.6 | 0.0 |
| 05/10:30am | 20.1 | 17.9 | 9.4 | 50 | 5.7 | WSW | 11 | 22 | 6 | 12 | 1018.6 | 1018.5 | 0.0 |
| 05/10:00am | 19.6 | 17.2 | 8.6 | 49 | 5.7 | WSW | 11 | 22 | 6 | 12 | 1019.0 | 1018.9 | 0.0 |
| 05/09:30am | 19.1 | 16.9 | 7.8 | 48 | 5.8 | SW | 9 | 15 | 5 | 8 | 1019.3 | 1019.2 | 0.0 |
| 05/09:00am | 18.6 | 17.0 | 8.8 | 53 | 5.1 | WSW | 7 | 13 | 4 | 7 | 1019.4 | 1019.3 | 1.2 |
| 05/08:30am | 17.9 | 16.5 | 9.5 | 58 | 4.4 | SW | 7 | 13 | 4 | 7 | 1019.3 | 1019.2 | 1.2 |
| 05/08:00am | 17.0 | 15.1 | 8.9 | 59 | 4.2 | WSW | 9 | 17 | 5 | 9 | 1019.0 | 1018.9 | 1.2 |
| 05/07:30am | 16.4 | 14.6 | 9.3 | 63 | 3.7 | WSW | 9 | 15 | 5 | 8 | 1018.5 | 1018.4 | 1.2 |
| 05/07:00am | 15.9 | 13.7 | 9.3 | 65 | 3.4 | SW | 11 | 19 | 6 | 10 | 1017.9 | 1017.8 | 1.2 |
| 05/06:30am | 16.2 | 14.1 | 9.8 | 66 | 3.3 | WSW | 11 | 17 | 6 | 9 | 1017.4 | 1017.3 | 1.2 |
| 05/06:00am | 16.2 | 15.1 | 11.8 | 75 | 2.4 | W | 9 | 15 | 5 | 8 | 1017.0 | 1016.9 | 1.2 |
| 05/05:30am | 16.5 | 16.4 | 13.4 | 82 | 1.7 | WSW | 6 | 11 | 3 | 6 | 1016.5 | 1016.4 | 1.2 |
| 05/05:00am | 17.3 | 18.6 | 15.1 | 87 | 1.3 | W | 2 | 7 | 1 | 4 | 1016.5 | 1016.4 | 1.2 |
| 05/04:30am | 17.5 | 17.8 | 15.1 | 86 | 1.4 | W | 7 | 9 | 4 | 5 | 1016.4 | 1016.3 | 1.2 |
| 05/04:00am | 17.7 | 17.7 | 15.1 | 85 | 1.5 | WSW | 9 | 13 | 5 | 7 | 1016.1 | 1016.0 | 1.2 |
| 05/03:30am | 18.0 | 18.1 | 15.4 | 85 | 1.5 | WSW | 9 | 13 | 5 | 7 | 1016.1 | 1016.0 | 1.2 |
| 05/03:00am | 18.1 | 18.4 | 16.1 | 88 | 1.2 | SW | 9 | 13 | 5 | 7 | 1016.2 | 1016.1 | 1.2 |
| 05/02:30am | 18.1 | 19.3 | 15.9 | 87 | 1.3 | WNW | 4 | 7 | 2 | 4 | 1016.2 | 1016.1 | 1.2 |
| 05/02:00am | 18.4 | 19.3 | 16.0 | 86 | 1.4 | WNW | 6 | 7 | 3 | 4 | 1016.3 | 1016.2 | 1.2 |
| 05/01:30am | 19.0 | 19.6 | 15.9 | 82 | 1.8 | W | 7 | 13 | 4 | 7 | 1016.2 | 1016.1 | 0.6 |
| 05/01:00am | 19.1 | 19.6 | 15.6 | 80 | 2.1 | WSW | 7 | 13 | 4 | 7 | 1016.0 | 1015.9 | 0.4 |
| 05/12:30am | 19.0 | 19.3 | 15.9 | 82 | 1.8 | W | 9 | 13 | 5 | 7 | 1015.8 | 1015.7 | 0.4 |
| 05/12:00am | 19.2 | 20.0 | 15.9 | 81 | 2.0 | WNW | 6 | 9 | 3 | 5 | 1015.6 | 1015.5 | 0.4 |
| Date/Time EST |
Temp °C |
App Temp °C |
Dew Point °C |
Rel Hum % |
Delta-T °C |
Wind | Press QNH hPa |
Press MSL hPa |
Rain since 9am mm |
||||
|---|---|---|---|---|---|---|---|---|---|---|---|---|---|
| Dir | Spd km/h |
Gust km/h |
Spd kts |
Gust kts |
|||||||||
| 04/11:30pm | 19.3 | 21.0 | 16.2 | 82 | 1.9 | WSW | 2 | 6 | 1 | 3 | 1015.7 | 1015.6 | 0.4 |
| 04/11:00pm | 19.8 | 18.8 | 16.6 | 82 | 1.9 | NNW | 17 | 26 | 9 | 14 | 1015.7 | 1015.6 | 0.4 |
| 04/10:30pm | 19.5 | 17.8 | 16.3 | 82 | 1.9 | N | 20 | 24 | 11 | 13 | 1015.9 | 1015.8 | 0.4 |
| 04/10:00pm | 19.6 | 17.7 | 16.6 | 83 | 1.8 | N | 22 | 26 | 12 | 14 | 1015.9 | 1015.8 | 0.4 |
| 04/09:30pm | 19.6 | 16.5 | 16.6 | 83 | 1.8 | N | 28 | 32 | 15 | 17 | 1016.1 | 1016.0 | 0.4 |
| 04/09:00pm | 20.1 | 16.0 | 16.5 | 80 | 2.2 | N | 33 | 37 | 18 | 20 | 1016.0 | 1015.9 | 0.4 |
| 04/08:30pm | 19.5 | 17.2 | 16.7 | 84 | 1.7 | N | 24 | 30 | 13 | 16 | 1016.1 | 1016.0 | 0.4 |
| 04/08:00pm | 19.5 | 17.1 | 16.3 | 82 | 1.9 | N | 24 | 28 | 13 | 15 | 1015.9 | 1015.8 | 0.2 |
| 04/07:30pm | 20.7 | 19.3 | 16.5 | 77 | 2.5 | N | 19 | 20 | 10 | 11 | 1016.0 | 1015.9 | 0.0 |
| 04/07:00pm | 21.3 | 19.6 | 16.3 | 73 | 3.0 | N | 20 | 24 | 11 | 13 | 1015.7 | 1015.6 | 0.0 |
| 04/06:30pm | 20.9 | 20.0 | 16.9 | 78 | 2.4 | N | 17 | 22 | 9 | 12 | 1015.5 | 1015.4 | 0.0 |
| 04/06:00pm | 21.4 | 22.2 | 18.2 | 82 | 2.0 | N | 11 | 13 | 6 | 7 | 1015.4 | 1015.3 | 0.0 |
| 04/05:30pm | 21.4 | 23.0 | 18.2 | 82 | 2.0 | NNW | 7 | 9 | 4 | 5 | 1015.3 | 1015.2 | 0.0 |
| 04/05:00pm | 21.4 | 22.2 | 18.2 | 82 | 2.0 | N | 11 | 13 | 6 | 7 | 1015.1 | 1015.0 | 0.0 |
| 04/04:30pm | 21.9 | 23.2 | 18.5 | 81 | 2.1 | NNE | 9 | 9 | 5 | 5 | 1015.1 | 1015.0 | 0.0 |
| 04/04:00pm | 21.6 | 22.9 | 17.6 | 78 | 2.5 | NNE | 7 | 9 | 4 | 5 | 1015.0 | 1014.9 | 0.0 |
| 04/03:30pm | 21.9 | 22.4 | 18.3 | 80 | 2.3 | NE | 13 | 15 | 7 | 8 | 1014.8 | 1014.7 | 0.0 |
| 04/03:00pm | 22.6 | 24.3 | 18.6 | 78 | 2.5 | NNE | 7 | 13 | 4 | 7 | 1015.0 | 1014.9 | 0.0 |
| 04/02:30pm | 22.4 | 23.2 | 18.2 | 77 | 2.6 | NNE | 11 | 11 | 6 | 6 | 1015.1 | 1015.0 | 0.0 |
| 04/02:00pm | 22.4 | 23.5 | 18.0 | 76 | 2.7 | NE | 9 | 13 | 5 | 7 | 1015.4 | 1015.3 | 0.0 |
| 04/01:30pm | 22.9 | 23.8 | 18.4 | 76 | 2.8 | NE | 11 | 15 | 6 | 8 | 1015.5 | 1015.4 | 0.0 |
| 04/01:00pm | 23.1 | 24.1 | 18.6 | 76 | 2.8 | NE | 11 | 13 | 6 | 7 | 1016.1 | 1016.0 | 0.0 |
| 04/12:30pm | 23.8 | 25.4 | 19.1 | 75 | 3.0 | NE | 9 | 11 | 5 | 6 | 1016.5 | 1016.4 | 0.0 |
| 04/12:00pm | 22.0 | 22.3 | 17.8 | 77 | 2.6 | NNE | 13 | 15 | 7 | 8 | 1017.2 | 1017.1 | 0.0 |
| 04/11:30am | 21.4 | 20.3 | 17.4 | 78 | 2.5 | NNE | 19 | 20 | 10 | 11 | 1017.4 | 1017.3 | 0.0 |
| 04/11:00am | 21.7 | 20.1 | 16.6 | 73 | 3.1 | NNE | 20 | 24 | 11 | 13 | 1017.5 | 1017.4 | 0.0 |
| 04/10:30am | 24.1 | 23.2 | 18.3 | 70 | 3.7 | NE | 20 | 24 | 11 | 13 | 1017.5 | 1017.4 | 0.0 |
| 04/10:00am | 22.7 | 22.1 | 17.6 | 73 | 3.2 | NNE | 17 | 20 | 9 | 11 | 1017.8 | 1017.7 | 0.0 |
| 04/09:30am | 21.3 | 19.0 | 16.7 | 75 | 2.8 | NNE | 24 | 28 | 13 | 15 | 1017.8 | 1017.7 | 0.0 |
| 04/09:00am | 21.9 | 19.3 | 17.7 | 77 | 2.6 | NNE | 28 | 32 | 15 | 17 | 1017.4 | 1017.3 | 0.0 |
| 04/08:30am | 21.1 | 18.2 | 17.1 | 78 | 2.4 | NNE | 28 | 32 | 15 | 17 | 1017.4 | 1017.3 | 0.0 |
| 04/08:00am | 20.8 | 20.4 | 17.2 | 80 | 2.2 | N | 15 | 19 | 8 | 10 | 1017.4 | 1017.3 | 0.0 |
| 04/07:30am | 19.7 | 20.3 | 16.9 | 84 | 1.7 | N | 9 | 13 | 5 | 7 | 1017.2 | 1017.1 | 0.0 |
| 04/07:00am | 19.3 | 19.2 | 16.9 | 86 | 1.5 | N | 13 | 17 | 7 | 9 | 1016.9 | 1016.8 | 0.0 |
| 04/06:30am | 19.7 | 17.6 | 17.1 | 85 | 1.6 | NNE | 24 | 28 | 13 | 15 | 1016.5 | 1016.4 | 0.0 |
| 04/06:00am | 19.1 | 18.5 | 16.7 | 86 | 1.4 | NNE | 15 | 19 | 8 | 10 | 1016.3 | 1016.2 | 0.0 |
| 04/05:30am | 18.7 | 18.6 | 16.1 | 85 | 1.5 | N | 11 | 15 | 6 | 8 | 1016.1 | 1016.0 | 0.0 |
| 04/05:00am | 18.0 | 18.3 | 16.0 | 88 | 1.2 | NNE | 9 | 15 | 5 | 8 | 1016.1 | 1016.0 | 0.0 |
| 04/04:30am | 17.8 | 18.4 | 15.4 | 86 | 1.4 | N | 6 | 6 | 3 | 3 | 1016.1 | 1016.0 | 0.0 |
| 04/04:00am | 18.1 | 18.8 | 15.5 | 85 | 1.5 | N | 6 | 9 | 3 | 5 | 1016.1 | 1016.0 | 0.0 |
| 04/03:30am | 18.6 | 18.4 | 15.8 | 84 | 1.7 | NNE | 11 | 13 | 6 | 7 | 1016.2 | 1016.1 | 0.0 |
| 04/03:00am | 18.8 | 17.8 | 15.5 | 81 | 1.9 | N | 15 | 17 | 8 | 9 | 1016.7 | 1016.6 | 0.0 |
| 04/02:30am | 19.1 | 18.3 | 16.0 | 82 | 1.8 | N | 15 | 17 | 8 | 9 | 1016.7 | 1016.6 | 0.0 |
| 04/02:00am | 19.3 | 19.3 | 16.2 | 82 | 1.9 | N | 11 | 15 | 6 | 8 | 1016.8 | 1016.7 | 0.0 |
| 04/01:30am | 19.7 | 17.9 | 16.0 | 79 | 2.2 | N | 20 | 24 | 11 | 13 | 1017.1 | 1017.0 | 0.0 |
| 04/01:00am | 20.0 | 18.0 | 16.4 | 80 | 2.2 | N | 22 | 28 | 12 | 15 | 1017.3 | 1017.2 | 0.0 |
| 04/12:30am | 20.3 | 17.7 | 16.9 | 81 | 2.1 | N | 26 | 32 | 14 | 17 | 1017.6 | 1017.5 | 0.0 |
| 04/12:00am | 20.4 | 18.2 | 16.8 | 80 | 2.2 | N | 24 | 28 | 13 | 15 | 1017.7 | 1017.6 | 0.0 |
| Date/Time EST |
Temp °C |
App Temp °C |
Dew Point °C |
Rel Hum % |
Delta-T °C |
Wind | Press QNH hPa |
Press MSL hPa |
Rain since 9am mm |
||||
|---|---|---|---|---|---|---|---|---|---|---|---|---|---|
| Dir | Spd km/h |
Gust km/h |
Spd kts |
Gust kts |
|||||||||
| 03/11:30pm | 20.3 | 17.6 | 16.5 | 79 | 2.3 | N | 26 | 30 | 14 | 16 | 1018.0 | 1017.9 | 0.0 |
| 03/11:00pm | 20.5 | 18.1 | 16.3 | 77 | 2.5 | N | 24 | 28 | 13 | 15 | 1018.4 | 1018.3 | 0.0 |
| 03/10:30pm | 20.6 | 18.6 | 16.4 | 77 | 2.5 | N | 22 | 28 | 12 | 15 | 1018.7 | 1018.6 | 0.0 |
| 03/10:00pm | 21.1 | 16.7 | 16.7 | 76 | 2.7 | NNE | 35 | 41 | 19 | 22 | 1018.8 | 1018.7 | 0.0 |
| 03/09:30pm | 21.3 | 15.6 | 17.3 | 78 | 2.5 | NNE | 43 | 50 | 23 | 27 | 1018.6 | 1018.5 | 0.0 |
| 03/09:00pm | 21.3 | 15.9 | 17.1 | 77 | 2.6 | NNE | 41 | 48 | 22 | 26 | 1018.5 | 1018.4 | 0.0 |
| 03/08:30pm | 21.3 | 16.9 | 17.5 | 79 | 2.3 | NNE | 37 | 43 | 20 | 23 | 1018.5 | 1018.4 | 0.0 |
Latest Capital City Observations: Canberra | Sydney | Melbourne | Brisbane | Adelaide | Perth | Hobart | Darwin
Other formats
Comma delimited format used in spreadsheet applications
http://www.bom.gov.au/fwo/IDN60901/IDN60901.95770.axf
JavaScript Object Notation format (JSON) in row-major order
http://www.bom.gov.au/fwo/IDN60901/IDN60901.95770.json
Data quality
Most of these data are generated automatically and are frequently updated. Quality checks on data are not normally performed. It is possible for incorrect values to appear. Refer to information at About Latest Weather Observations and please check the disclaimer before using these data.
